createdAt,value
2023-02-11T00:00:42.744Z,6.59
2023-02-11T00:01:44.252Z,6.61
2023-02-11T00:02:47.889Z,6.59
2023-02-11T00:03:49.664Z,6.63
2023-02-11T00:04:51.197Z,6.66
2023-02-11T00:05:59.395Z,6.67
2023-02-11T00:07:02.152Z,6.67
2023-02-11T00:08:03.702Z,6.71
2023-02-11T00:09:05.317Z,6.69
2023-02-11T00:10:07.953Z,6.65
2023-02-11T00:11:12.206Z,6.65
2023-02-11T00:12:13.723Z,6.65
2023-02-11T00:13:15.301Z,6.61
2023-02-11T00:14:16.873Z,6.58
2023-02-11T00:15:18.338Z,6.58
2023-02-11T00:16:20.243Z,6.62
2023-02-11T00:17:21.805Z,6.59
2023-02-11T00:18:23.302Z,6.58
2023-02-11T00:19:24.874Z,6.51
2023-02-11T00:20:26.396Z,6.44
2023-02-11T00:21:27.924Z,6.42
2023-02-11T00:22:29.457Z,6.41
2023-02-11T00:23:31.024Z,6.35
2023-02-11T00:24:32.657Z,6.30
2023-02-11T00:25:34.270Z,6.29
2023-02-11T00:26:35.782Z,6.29
2023-02-11T00:27:37.699Z,6.33
2023-02-11T00:28:39.301Z,6.37
2023-02-11T00:29:43.125Z,6.41
2023-02-11T00:30:44.760Z,6.46
2023-02-11T00:31:46.417Z,6.51
2023-02-11T00:32:47.961Z,6.55
2023-02-11T00:33:49.560Z,6.57
2023-02-11T00:34:52.248Z,6.62
2023-02-11T00:35:53.779Z,6.64
2023-02-11T00:36:55.498Z,6.65
2023-02-11T00:37:57.067Z,6.61
2023-02-11T00:38:59.065Z,6.63
2023-02-11T00:40:00.703Z,6.63
2023-02-11T00:41:02.170Z,6.64
2023-02-11T00:42:03.753Z,6.65
2023-02-11T00:43:05.254Z,6.65
2023-02-11T00:44:06.707Z,6.67
2023-02-11T00:45:09.804Z,6.70
2023-02-11T00:46:11.463Z,6.67
2023-02-11T00:47:13.003Z,6.66
2023-02-11T00:48:14.673Z,6.66
2023-02-11T00:49:16.182Z,6.69
2023-02-11T00:50:17.682Z,6.70
2023-02-11T00:51:19.152Z,6.64
2023-02-11T00:52:20.659Z,6.54
2023-02-11T00:53:22.214Z,6.65
2023-02-11T00:54:23.804Z,6.65
2023-02-11T00:55:25.281Z,6.68
2023-02-11T00:56:26.810Z,6.62
2023-02-11T00:57:28.316Z,6.57
2023-02-11T00:58:29.850Z,6.62
2023-02-11T00:59:31.359Z,6.61
2023-02-11T01:00:32.902Z,6.53
2023-02-11T01:01:34.780Z,6.57
2023-02-11T01:02:36.494Z,6.54
2023-02-11T01:03:38.311Z,6.52
2023-02-11T01:04:39.796Z,6.52
2023-02-11T01:05:42.119Z,6.58
2023-02-11T01:06:44.561Z,6.62
2023-02-11T01:07:46.194Z,6.66
2023-02-11T01:08:47.722Z,6.68
2023-02-11T01:09:49.301Z,6.72
2023-02-11T01:11:00.267Z,6.74
2023-02-11T01:12:01.828Z,6.75
2023-02-11T01:13:03.730Z,6.76
2023-02-11T01:14:05.201Z,6.74
2023-02-11T01:15:07.037Z,6.74
2023-02-11T01:16:09.204Z,6.77
2023-02-11T01:17:10.825Z,6.75
2023-02-11T01:18:12.321Z,6.77
2023-02-11T01:19:13.797Z,6.79
2023-02-11T01:20:19.779Z,6.76
2023-02-11T01:21:21.307Z,6.75
2023-02-11T01:22:24.498Z,6.74
2023-02-11T01:23:26.067Z,6.79
2023-02-11T01:24:27.597Z,6.83
2023-02-11T01:25:29.158Z,6.84
2023-02-11T01:26:31.112Z,6.82
2023-02-11T01:27:33.040Z,6.83
2023-02-11T01:28:34.670Z,6.86
2023-02-11T01:29:36.302Z,6.90
2023-02-11T01:30:37.747Z,6.92
2023-02-11T01:31:39.403Z,6.89
2023-02-11T01:32:41.045Z,6.88
2023-02-11T01:33:43.551Z,6.88
2023-02-11T01:34:45.112Z,6.90
2023-02-11T01:35:47.872Z,6.91
2023-02-11T01:36:49.493Z,6.93
2023-02-11T01:37:50.974Z,6.95
2023-02-11T01:38:52.752Z,6.98
2023-02-11T01:39:55.137Z,6.99
2023-02-11T01:40:57.898Z,7.02
2023-02-11T01:41:59.380Z,7.04
2023-02-11T01:43:00.923Z,7.04
2023-02-11T01:44:20.922Z,7.06
2023-02-11T01:45:39.025Z,7.07
2023-02-11T01:46:40.523Z,7.08
2023-02-11T01:47:42.070Z,7.06
2023-02-11T01:49:03.997Z,7.07
2023-02-11T01:50:05.507Z,7.06
2023-02-11T01:51:08.471Z,7.06
2023-02-11T01:52:26.639Z,7.06
2023-02-11T01:53:46.725Z,7.04
2023-02-11T01:55:08.662Z,7.07
2023-02-11T01:56:33.146Z,6.95
2023-02-11T01:57:35.244Z,7.07
2023-02-11T01:58:36.804Z,7.03
2023-02-11T01:59:39.540Z,7.05
2023-02-11T02:00:42.630Z,7.07
2023-02-11T02:01:45.156Z,7.09
2023-02-11T02:02:49.214Z,7.11
2023-02-11T02:03:50.774Z,7.09
2023-02-11T02:05:18.391Z,7.11
2023-02-11T02:06:22.619Z,7.00
2023-02-11T02:07:29.274Z,6.97
2023-02-11T02:08:34.995Z,7.00
2023-02-11T02:09:38.062Z,6.99
2023-02-11T02:10:40.778Z,6.96
2023-02-11T02:11:42.265Z,7.00
2023-02-11T02:12:43.749Z,6.91
2023-02-11T02:13:45.303Z,6.84
2023-02-11T02:14:47.229Z,6.73
2023-02-11T02:15:52.738Z,6.65
2023-02-11T02:16:54.598Z,6.60
2023-02-11T02:17:56.114Z,6.58
2023-02-11T02:19:05.320Z,6.59
2023-02-11T02:20:14.758Z,6.56
2023-02-11T02:21:19.785Z,6.40
2023-02-11T02:22:30.418Z,6.38
2023-02-11T02:23:44.221Z,6.32
2023-02-11T02:24:48.815Z,6.30
2023-02-11T02:25:53.161Z,6.30
2023-02-11T02:27:13.152Z,6.33
2023-02-11T02:28:14.756Z,6.34
2023-02-11T02:29:22.399Z,6.37
2023-02-11T02:30:40.034Z,6.37
2023-02-11T02:32:00.362Z,6.41
2023-02-11T02:33:20.545Z,6.44
2023-02-11T02:34:24.848Z,6.43
2023-02-11T02:35:38.436Z,6.49
2023-02-11T02:36:44.063Z,6.51
2023-02-11T02:37:45.584Z,6.54
2023-02-11T02:38:48.985Z,6.57
2023-02-11T02:39:50.636Z,6.62
2023-02-11T02:40:53.664Z,6.65
2023-02-11T02:41:55.134Z,6.62
2023-02-11T02:42:56.614Z,6.74
2023-02-11T02:43:58.157Z,6.77
2023-02-11T02:44:59.637Z,6.82
2023-02-11T02:46:30.126Z,6.83
2023-02-11T02:47:31.699Z,6.82
2023-02-11T02:48:35.745Z,6.87
2023-02-11T02:49:37.218Z,6.79
2023-02-11T02:50:38.778Z,6.81
2023-02-11T02:51:49.131Z,6.84
2023-02-11T02:53:00.658Z,6.87
2023-02-11T02:54:02.174Z,6.86
2023-02-11T02:55:22.488Z,6.73
2023-02-11T02:56:26.304Z,6.91
2023-02-11T02:57:32.816Z,6.94
2023-02-11T02:58:37.111Z,6.96
2023-02-11T03:00:07.935Z,6.99
2023-02-11T03:01:21.860Z,7.01
2023-02-11T03:02:25.298Z,7.01
2023-02-11T03:03:29.570Z,7.04
2023-02-11T03:04:35.543Z,6.99
2023-02-11T03:05:52.506Z,7.00
2023-02-11T03:07:06.057Z,7.00
2023-02-11T03:08:09.493Z,6.97
2023-02-11T03:09:15.830Z,6.96
2023-02-11T03:10:19.401Z,7.00
2023-02-11T03:11:20.911Z,7.01
2023-02-11T03:12:22.381Z,7.02
2023-02-11T03:13:25.194Z,7.00
2023-02-11T03:14:26.889Z,6.98
2023-02-11T03:15:28.478Z,6.97
2023-02-11T03:16:30.076Z,6.97
2023-02-11T03:17:31.654Z,6.98
2023-02-11T03:18:33.130Z,6.96
2023-02-11T03:19:36.173Z,6.99
2023-02-11T03:20:37.662Z,7.03
2023-02-11T03:21:39.270Z,7.08
2023-02-11T03:22:48.406Z,7.12
2023-02-11T03:23:51.109Z,7.16
2023-02-11T03:24:52.588Z,7.15
2023-02-11T03:25:58.576Z,7.17
2023-02-11T03:27:02.083Z,7.18
2023-02-11T03:28:06.867Z,7.17
2023-02-11T03:29:08.487Z,7.14
2023-02-11T03:30:10.038Z,7.14
2023-02-11T03:31:11.630Z,7.14
2023-02-11T03:32:22.247Z,7.19
2023-02-11T03:33:35.802Z,7.20
2023-02-11T03:34:45.965Z,7.22
2023-02-11T03:35:50.664Z,7.23
2023-02-11T03:36:54.571Z,7.13
2023-02-11T03:37:57.710Z,7.25
2023-02-11T03:38:59.312Z,7.26
2023-02-11T03:40:05.254Z,7.25
2023-02-11T03:41:07.089Z,7.25
2023-02-11T03:42:08.792Z,7.26
2023-02-11T03:43:11.399Z,7.29
2023-02-11T03:44:12.906Z,7.29
2023-02-11T03:45:15.619Z,7.29
2023-02-11T03:46:18.301Z,7.24
2023-02-11T03:47:20.238Z,7.22
2023-02-11T03:48:39.121Z,7.27
2023-02-11T03:49:40.588Z,7.29
2023-02-11T03:50:42.098Z,7.29
2023-02-11T03:51:43.581Z,7.32
2023-02-11T03:52:45.165Z,7.33
2023-02-11T03:53:46.713Z,7.33
2023-02-11T03:54:49.254Z,7.36
2023-02-11T03:55:51.397Z,7.31
2023-02-11T03:56:54.096Z,7.24
2023-02-11T03:57:55.765Z,7.24
2023-02-11T03:58:57.465Z,7.24
2023-02-11T03:59:59.028Z,7.21
2023-02-11T04:01:02.422Z,7.22
2023-02-11T04:02:03.987Z,7.24
2023-02-11T04:03:05.818Z,7.27
2023-02-11T04:04:07.377Z,7.30
2023-02-11T04:05:09.623Z,7.32
2023-02-11T04:06:11.144Z,7.33
2023-02-11T04:07:12.701Z,7.34
2023-02-11T04:08:14.157Z,7.36
2023-02-11T04:09:16.126Z,7.38
2023-02-11T04:10:17.756Z,7.40
2023-02-11T04:11:19.292Z,7.35
2023-02-11T04:12:20.838Z,7.35
2023-02-11T04:13:22.301Z,7.29
2023-02-11T04:14:23.833Z,7.32
2023-02-11T04:15:25.421Z,7.33
2023-02-11T04:16:26.987Z,7.33
2023-02-11T04:17:28.543Z,7.30
2023-02-11T04:18:30.010Z,7.29
2023-02-11T04:19:31.519Z,7.27
2023-02-11T04:20:33.057Z,7.25
2023-02-11T04:21:34.519Z,7.23
2023-02-11T04:22:36.132Z,7.11
2023-02-11T04:23:37.613Z,6.99
2023-02-11T04:24:39.343Z,6.91
2023-02-11T04:25:40.879Z,6.83
2023-02-11T04:26:44.213Z,6.83
2023-02-11T04:27:45.691Z,6.76
2023-02-11T04:28:47.133Z,6.75
2023-02-11T04:29:48.652Z,6.67
2023-02-11T04:30:50.994Z,6.64
2023-02-11T04:31:52.635Z,6.61
2023-02-11T04:32:54.501Z,6.65
2023-02-11T04:33:56.307Z,6.68
2023-02-11T04:34:57.798Z,6.72
2023-02-11T04:35:59.316Z,6.69
2023-02-11T04:37:00.821Z,6.73
2023-02-11T04:38:02.336Z,6.71
2023-02-11T04:39:03.978Z,6.70
2023-02-11T04:40:05.710Z,6.74
2023-02-11T04:41:07.224Z,6.73
2023-02-11T04:42:08.679Z,6.72
2023-02-11T04:43:10.156Z,6.72
2023-02-11T04:44:11.669Z,6.73
2023-02-11T04:45:13.201Z,6.70
2023-02-11T04:46:14.858Z,6.76
2023-02-11T04:47:16.400Z,6.79
2023-02-11T04:48:17.869Z,6.83
2023-02-11T04:49:19.410Z,6.87
2023-02-11T04:50:20.956Z,6.81
2023-02-11T04:51:22.454Z,6.93
2023-02-11T04:52:23.961Z,6.94
2023-02-11T04:53:25.454Z,6.97
2023-02-11T04:54:26.949Z,6.98
2023-02-11T04:55:28.451Z,7.02
2023-02-11T04:56:30.000Z,6.99
2023-02-11T04:57:31.474Z,7.02
2023-02-11T04:58:32.928Z,7.04
2023-02-11T04:59:34.418Z,7.02
2023-02-11T05:00:35.912Z,7.03
2023-02-11T05:01:37.471Z,6.92
2023-02-11T05:02:39.038Z,6.79
2023-02-11T05:03:40.663Z,6.77
2023-02-11T05:04:42.153Z,6.80
2023-02-11T05:05:43.787Z,6.81
2023-02-11T05:06:45.328Z,6.83
2023-02-11T05:07:46.878Z,6.77
2023-02-11T05:08:48.424Z,6.77
2023-02-11T05:09:49.871Z,6.74
2023-02-11T05:10:51.343Z,6.76
2023-02-11T05:11:53.633Z,6.76
2023-02-11T05:12:56.118Z,6.77
2023-02-11T05:13:57.793Z,6.81
2023-02-11T05:14:59.263Z,6.77
2023-02-11T05:16:00.793Z,6.82
2023-02-11T05:17:02.419Z,6.86
2023-02-11T05:18:04.141Z,6.90
2023-02-11T05:19:05.635Z,6.95
2023-02-11T05:20:07.259Z,6.92
2023-02-11T05:21:09.106Z,6.91
2023-02-11T05:22:10.636Z,6.89
2023-02-11T05:23:12.193Z,6.91
2023-02-11T05:24:13.686Z,6.94
2023-02-11T05:25:15.138Z,6.98
2023-02-11T05:26:16.694Z,6.94
2023-02-11T05:27:18.208Z,6.93
2023-02-11T05:28:19.698Z,6.97
2023-02-11T05:29:21.191Z,6.99
2023-02-11T05:30:22.664Z,7.00
2023-02-11T05:31:24.128Z,7.02
2023-02-11T05:32:25.619Z,7.05
2023-02-11T05:33:27.238Z,7.09
2023-02-11T05:34:28.732Z,7.10
2023-02-11T05:35:30.217Z,7.10
2023-02-11T05:36:33.475Z,7.12
2023-02-11T05:37:35.232Z,7.13
2023-02-11T05:38:36.943Z,7.12
2023-02-11T05:39:38.421Z,7.11
2023-02-11T05:40:39.905Z,7.12
2023-02-11T05:41:41.449Z,7.10
2023-02-11T05:42:42.964Z,7.09
2023-02-11T05:43:44.421Z,7.06
2023-02-11T05:44:45.923Z,7.00
2023-02-11T05:45:47.439Z,7.02
2023-02-11T05:46:49.397Z,7.01
2023-02-11T05:47:50.883Z,6.98
2023-02-11T05:48:52.356Z,6.93
2023-02-11T05:49:53.980Z,6.88
2023-02-11T05:50:55.487Z,6.85
2023-02-11T05:51:56.955Z,6.86
2023-02-11T05:52:58.420Z,6.88
2023-02-11T05:54:00.254Z,6.89
2023-02-11T05:55:01.717Z,6.88
2023-02-11T05:56:03.389Z,6.84
2023-02-11T05:57:04.817Z,6.79
2023-02-11T05:58:06.430Z,6.81
2023-02-11T05:59:07.967Z,6.82
2023-02-11T06:00:09.769Z,6.77
2023-02-11T06:01:16.980Z,6.77
2023-02-11T06:02:18.579Z,6.77
2023-02-11T06:03:20.207Z,6.67
2023-02-11T06:04:21.940Z,6.64
2023-02-11T06:05:23.489Z,6.59
2023-02-11T06:06:25.184Z,6.50
2023-02-11T06:07:26.757Z,6.43
2023-02-11T06:08:28.274Z,6.39
2023-02-11T06:09:29.757Z,6.42
2023-02-11T06:10:31.265Z,6.38
2023-02-11T06:11:32.782Z,6.31
2023-02-11T06:12:34.360Z,6.31
2023-02-11T06:13:35.977Z,6.30
2023-02-11T06:14:37.502Z,6.29
2023-02-11T06:15:39.159Z,6.19
2023-02-11T06:16:40.633Z,6.19
2023-02-11T06:17:42.123Z,6.15
2023-02-11T06:18:43.615Z,6.23
2023-02-11T06:19:45.126Z,6.26
2023-02-11T06:20:46.571Z,6.29
2023-02-11T06:21:48.120Z,6.27
2023-02-11T06:22:49.634Z,6.17
2023-02-11T06:23:51.089Z,6.06
2023-02-11T06:25:01.212Z,6.01
2023-02-11T06:26:06.619Z,5.89
2023-02-11T06:27:08.064Z,5.78
2023-02-11T06:28:10.710Z,5.71
2023-02-11T06:29:12.961Z,5.75
2023-02-11T06:30:14.609Z,5.74
2023-02-11T06:31:16.305Z,5.77
2023-02-11T06:32:39.315Z,5.79
2023-02-11T06:33:39.333Z,5.83
2023-02-11T06:34:40.814Z,5.90
2023-02-11T06:35:42.323Z,5.96
2023-02-11T06:36:44.080Z,5.99
2023-02-11T06:37:45.601Z,6.02
2023-02-11T06:38:47.270Z,6.05
2023-02-11T06:39:48.799Z,6.02
2023-02-11T06:40:50.304Z,6.02
2023-02-11T06:41:51.833Z,5.96
2023-02-11T06:42:53.266Z,5.92
2023-02-11T06:43:54.822Z,5.91
2023-02-11T06:44:56.317Z,5.91
2023-02-11T06:45:57.809Z,5.86
2023-02-11T06:46:59.318Z,5.78
2023-02-11T06:48:00.813Z,5.69
2023-02-11T06:49:02.322Z,5.71
2023-02-11T06:50:03.962Z,5.68
2023-02-11T06:51:06.158Z,5.63
2023-02-11T06:52:07.941Z,5.60
2023-02-11T06:53:09.400Z,5.61
2023-02-11T06:54:10.984Z,5.66
2023-02-11T06:55:12.484Z,5.72
2023-02-11T06:56:16.156Z,5.74
2023-02-11T06:57:17.637Z,5.81
2023-02-11T06:58:19.069Z,5.87
2023-02-11T06:59:20.803Z,5.93
2023-02-11T07:00:22.287Z,5.98
2023-02-11T07:01:24.063Z,6.03
2023-02-11T07:02:25.641Z,6.07
2023-02-11T07:03:27.141Z,6.12
2023-02-11T07:04:28.610Z,6.16
2023-02-11T07:05:30.089Z,6.19
2023-02-11T07:06:31.583Z,6.20
2023-02-11T07:07:34.302Z,6.17
2023-02-11T07:08:36.051Z,6.13
2023-02-11T07:09:37.541Z,6.15
2023-02-11T07:10:39.104Z,6.18
2023-02-11T07:11:40.569Z,6.23
2023-02-11T07:12:42.049Z,6.25
2023-02-11T07:13:43.575Z,6.22
2023-02-11T07:14:45.047Z,6.17
2023-02-11T07:15:46.560Z,6.13
2023-02-11T07:16:48.090Z,6.13
2023-02-11T07:17:49.572Z,6.10
2023-02-11T07:18:51.060Z,6.12
2023-02-11T07:19:52.555Z,6.18
2023-02-11T07:20:54.082Z,6.20
2023-02-11T07:21:55.612Z,6.23
2023-02-11T07:22:57.134Z,6.22
2023-02-11T07:23:58.653Z,6.25
2023-02-11T07:25:00.180Z,6.30
2023-02-11T07:26:04.817Z,6.33
2023-02-11T07:27:06.274Z,6.31
2023-02-11T07:28:07.883Z,6.27
2023-02-11T07:29:09.349Z,6.29
2023-02-11T07:30:11.279Z,6.30
2023-02-11T07:31:13.877Z,6.24
2023-02-11T07:32:15.602Z,6.24
2023-02-11T07:33:17.149Z,6.20
2023-02-11T07:34:18.770Z,6.18
2023-02-11T07:35:20.361Z,6.18
2023-02-11T07:36:21.862Z,6.14
2023-02-11T07:37:23.353Z,6.14
2023-02-11T07:38:24.842Z,6.18
2023-02-11T07:39:27.539Z,6.23
2023-02-11T07:40:31.423Z,6.22
2023-02-11T07:41:36.665Z,6.25
2023-02-11T07:42:41.085Z,6.30
2023-02-11T07:43:42.629Z,6.28
2023-02-11T07:44:44.125Z,6.29
2023-02-11T07:45:45.579Z,6.30
2023-02-11T07:46:49.156Z,6.35
2023-02-11T07:47:50.841Z,6.39
2023-02-11T07:48:52.374Z,6.44
2023-02-11T07:49:56.471Z,6.42
2023-02-11T07:51:11.391Z,6.47
2023-02-11T07:52:12.948Z,6.65
2023-02-11T07:53:14.441Z,6.69
2023-02-11T07:54:15.969Z,6.78
2023-02-11T07:55:17.487Z,6.78
2023-02-11T07:56:19.296Z,6.99
2023-02-11T07:57:20.764Z,7.15
2023-02-11T07:58:22.329Z,7.29
2023-02-11T07:59:24.887Z,7.29
2023-02-11T08:00:26.386Z,7.31
2023-02-11T08:01:28.679Z,7.34
2023-02-11T08:02:30.428Z,7.25
2023-02-11T08:03:31.979Z,7.23
2023-02-11T08:04:33.469Z,7.29
2023-02-11T08:05:37.516Z,7.32
2023-02-11T08:06:40.545Z,7.24
2023-02-11T08:07:42.015Z,7.25
2023-02-11T08:08:43.577Z,7.34
2023-02-11T08:09:45.224Z,7.50
2023-02-11T08:10:46.799Z,7.63
2023-02-11T08:11:48.485Z,7.59
2023-02-11T08:12:50.005Z,7.69
2023-02-11T08:13:51.701Z,7.82
2023-02-11T08:14:53.429Z,7.88
2023-02-11T08:15:57.242Z,8.03
2023-02-11T08:16:58.766Z,8.20
2023-02-11T08:18:00.251Z,8.40
2023-02-11T08:19:03.294Z,8.62
2023-02-11T08:20:05.075Z,8.73
2023-02-11T08:21:07.102Z,8.83
2023-02-11T08:22:08.616Z,8.89
2023-02-11T08:23:10.108Z,8.99
2023-02-11T08:24:11.769Z,9.13
2023-02-11T08:25:13.260Z,9.25
2023-02-11T08:26:15.772Z,9.31
2023-02-11T08:27:17.266Z,9.44
2023-02-11T08:28:18.778Z,9.46
2023-02-11T08:29:20.299Z,9.44
2023-02-11T08:30:21.830Z,9.46
2023-02-11T08:31:24.355Z,9.42
2023-02-11T08:32:25.966Z,9.40
2023-02-11T08:33:27.424Z,9.36
2023-02-11T08:34:28.940Z,9.25
2023-02-11T08:35:30.497Z,9.09
2023-02-11T08:36:32.965Z,9.20
2023-02-11T08:37:34.463Z,9.03
2023-02-11T08:38:35.953Z,9.02
2023-02-11T08:39:37.453Z,8.98
2023-02-11T08:40:38.930Z,9.16
2023-02-11T08:41:40.401Z,9.26
2023-02-11T08:42:41.894Z,9.39
2023-02-11T08:43:43.735Z,9.46
2023-02-11T08:44:45.245Z,9.46
2023-02-11T08:45:46.849Z,9.53
2023-02-11T08:46:48.489Z,9.68
2023-02-11T08:47:49.974Z,9.71
2023-02-11T08:48:51.484Z,9.86
2023-02-11T08:49:53.082Z,9.96
2023-02-11T08:50:55.100Z,10.14
2023-02-11T08:51:59.479Z,10.25
2023-02-11T08:53:00.932Z,10.38
2023-02-11T08:54:02.505Z,10.52
2023-02-11T08:55:04.403Z,10.59
2023-02-11T08:56:06.328Z,10.73
2023-02-11T08:57:07.799Z,10.82
2023-02-11T08:58:09.306Z,10.99
2023-02-11T08:59:12.488Z,11.06
2023-02-11T09:00:14.324Z,11.20
2023-02-11T09:01:17.478Z,11.20
2023-02-11T09:02:19.000Z,11.36
2023-02-11T09:03:20.832Z,11.49
2023-02-11T09:04:22.385Z,11.63
2023-02-11T09:05:23.933Z,11.77
2023-02-11T09:06:25.568Z,11.90
2023-02-11T09:07:27.943Z,11.98
2023-02-11T09:08:29.417Z,12.08
2023-02-11T09:09:30.930Z,12.16
2023-02-11T09:10:32.575Z,12.22
2023-02-11T09:11:34.642Z,12.28
2023-02-11T09:12:36.087Z,12.30
2023-02-11T09:13:37.623Z,12.28
2023-02-11T09:14:39.192Z,12.34
2023-02-11T09:15:40.678Z,12.26
2023-02-11T09:16:42.449Z,12.31
2023-02-11T09:17:43.998Z,12.27
2023-02-11T09:18:45.691Z,12.26
2023-02-11T09:19:47.158Z,12.26
2023-02-11T09:20:49.193Z,12.29
2023-02-11T09:21:50.786Z,12.36
2023-02-11T09:22:52.263Z,12.45
2023-02-11T09:23:53.797Z,12.49
2023-02-11T09:24:55.337Z,12.56
2023-02-11T09:25:56.905Z,12.52
2023-02-11T09:26:58.400Z,12.52
2023-02-11T09:27:59.896Z,12.49
2023-02-11T09:29:01.630Z,12.47
2023-02-11T09:30:03.702Z,12.47
2023-02-11T09:31:06.267Z,12.48
2023-02-11T09:32:09.839Z,12.38
2023-02-11T09:33:11.525Z,12.33
2023-02-11T09:34:13.081Z,12.36
2023-02-11T09:35:14.589Z,12.33
2023-02-11T09:36:16.890Z,12.32
2023-02-11T09:37:18.425Z,12.38
2023-02-11T09:38:19.930Z,12.40
2023-02-11T09:39:21.433Z,12.21
2023-02-11T09:40:22.909Z,12.31
2023-02-11T09:41:27.368Z,12.36
2023-02-11T09:42:43.533Z,12.36
2023-02-11T09:43:45.791Z,12.37
2023-02-11T09:44:47.331Z,12.41
2023-02-11T09:45:49.119Z,12.47
2023-02-11T09:46:54.920Z,12.55
2023-02-11T09:47:56.359Z,12.55
2023-02-11T09:48:57.828Z,12.64
2023-02-11T09:50:12.505Z,12.75
2023-02-11T09:51:19.164Z,12.83
2023-02-11T09:52:37.735Z,12.83
2023-02-11T09:53:40.640Z,12.89
2023-02-11T09:54:48.041Z,12.93
2023-02-11T09:55:55.616Z,12.94
2023-02-11T09:56:57.112Z,12.91
2023-02-11T09:57:58.625Z,12.95
2023-02-11T09:59:00.138Z,12.97
2023-02-11T10:00:02.117Z,13.00
2023-02-11T10:01:35.729Z,13.05
2023-02-11T10:02:44.952Z,13.08
2023-02-11T10:03:55.371Z,13.11
2023-02-11T10:05:02.825Z,13.09
2023-02-11T10:06:10.722Z,13.11
2023-02-11T10:07:12.255Z,13.14
2023-02-11T10:08:19.801Z,13.16
2023-02-11T10:09:40.069Z,13.28
2023-02-11T10:10:50.522Z,13.39
2023-02-11T10:11:52.064Z,13.52
2023-02-11T10:12:53.517Z,13.65
2023-02-11T10:14:11.042Z,13.76
2023-02-11T10:15:14.950Z,13.78
2023-02-11T10:16:23.154Z,13.86
2023-02-11T10:17:38.838Z,13.83
2023-02-11T10:18:44.619Z,13.88
2023-02-11T10:19:52.653Z,13.92
2023-02-11T10:20:54.096Z,13.94
2023-02-11T10:22:03.273Z,13.91
2023-02-11T10:23:15.216Z,13.92
2023-02-11T10:24:16.950Z,13.90
2023-02-11T10:25:20.666Z,13.86
2023-02-11T10:26:22.114Z,13.84
2023-02-11T10:27:26.761Z,13.81
2023-02-11T10:28:31.741Z,13.77
2023-02-11T10:29:37.349Z,13.70
2023-02-11T10:30:59.214Z,13.66
2023-02-11T10:32:01.298Z,13.68
2023-02-11T10:33:21.362Z,13.68
2023-02-11T10:34:22.878Z,13.67
2023-02-11T10:35:24.558Z,13.64
2023-02-11T10:36:30.194Z,13.65
2023-02-11T10:37:31.676Z,13.69
2023-02-11T10:38:33.876Z,13.71
2023-02-11T10:39:35.354Z,13.73
2023-02-11T10:40:36.822Z,13.84
2023-02-11T10:41:39.610Z,13.93
2023-02-11T10:42:41.754Z,14.04
2023-02-11T10:43:43.516Z,14.17
2023-02-11T10:45:00.899Z,14.19
2023-02-11T10:46:02.961Z,14.17
2023-02-11T10:47:24.845Z,14.24
2023-02-11T10:48:35.877Z,14.23
2023-02-11T10:49:37.367Z,14.32
2023-02-11T10:50:38.843Z,14.40
2023-02-11T10:51:40.264Z,14.37
2023-02-11T10:52:41.803Z,14.43
2023-02-11T10:53:43.348Z,14.53
2023-02-11T10:55:03.261Z,14.64
2023-02-11T10:56:04.960Z,14.68
2023-02-11T10:57:06.538Z,14.83
2023-02-11T10:58:18.906Z,14.92
2023-02-11T10:59:30.362Z,15.01
2023-02-11T11:00:40.925Z,15.13
2023-02-11T11:01:53.234Z,15.16
2023-02-11T11:02:56.348Z,15.13
2023-02-11T11:03:59.948Z,15.12
2023-02-11T11:05:03.333Z,15.07
2023-02-11T11:06:10.973Z,15.11
2023-02-11T11:07:20.026Z,15.12
2023-02-11T11:08:21.645Z,15.07
2023-02-11T11:09:32.421Z,15.11
2023-02-11T11:10:44.304Z,15.10
2023-02-11T11:11:51.205Z,15.08
2023-02-11T11:12:52.726Z,15.04
2023-02-11T11:13:54.188Z,15.00
2023-02-11T11:14:59.964Z,14.99
2023-02-11T11:16:13.641Z,14.98
2023-02-11T11:17:18.576Z,14.98
2023-02-11T11:18:23.266Z,14.96
2023-02-11T11:19:25.259Z,14.83
2023-02-11T11:20:29.817Z,14.82
2023-02-11T11:21:33.748Z,14.82
2023-02-11T11:22:36.256Z,14.78
2023-02-11T11:23:37.817Z,14.75
2023-02-11T11:24:44.682Z,14.73
2023-02-11T11:25:46.806Z,14.77
2023-02-11T11:26:53.470Z,14.74
2023-02-11T11:27:56.479Z,14.73
2023-02-11T11:29:01.712Z,14.73
2023-02-11T11:30:03.399Z,14.71
2023-02-11T11:31:05.080Z,14.70
2023-02-11T11:32:26.899Z,14.68
2023-02-11T11:33:29.198Z,14.57
2023-02-11T11:34:33.984Z,14.57
2023-02-11T11:35:35.569Z,14.55
2023-02-11T11:36:38.079Z,14.53
2023-02-11T11:37:39.589Z,14.50
2023-02-11T11:38:45.437Z,14.42
2023-02-11T11:40:12.902Z,14.31
2023-02-11T11:41:14.445Z,14.25
2023-02-11T11:42:29.249Z,14.21
2023-02-11T11:43:30.961Z,14.13
2023-02-11T11:44:35.844Z,14.12
2023-02-11T11:45:37.321Z,14.13
2023-02-11T11:46:39.312Z,14.11
2023-02-11T11:47:58.242Z,14.08
2023-02-11T11:49:17.533Z,14.05
2023-02-11T11:50:26.696Z,13.98
2023-02-11T11:51:28.208Z,13.94
2023-02-11T11:52:32.251Z,13.92
2023-02-11T11:53:52.759Z,13.85
2023-02-11T11:54:59.183Z,13.81
2023-02-11T11:56:04.186Z,13.82
2023-02-11T11:57:10.643Z,13.83
2023-02-11T11:58:18.180Z,13.79
2023-02-11T11:59:20.385Z,13.76
2023-02-11T12:00:24.406Z,13.76
2023-02-11T12:01:28.490Z,13.70
2023-02-11T12:02:32.680Z,13.74
2023-02-11T12:03:34.115Z,13.74
2023-02-11T12:04:35.581Z,13.73
2023-02-11T12:05:55.634Z,13.74
2023-02-11T12:07:16.493Z,13.71
2023-02-11T12:08:17.984Z,13.65
2023-02-11T12:09:28.833Z,13.65
2023-02-11T12:10:46.180Z,13.65
2023-02-11T12:11:53.270Z,13.57
2023-02-11T12:12:54.758Z,13.51
2023-02-11T12:14:11.324Z,13.48
2023-02-11T12:15:15.600Z,13.47
2023-02-11T12:16:34.246Z,13.45
2023-02-11T12:17:45.823Z,13.44
2023-02-11T12:18:47.721Z,13.42
2023-02-11T12:20:05.400Z,13.41
2023-02-11T12:21:12.477Z,13.38
2023-02-11T12:22:28.805Z,13.31
2023-02-11T12:23:36.225Z,13.25
2023-02-11T12:24:46.624Z,13.24
2023-02-11T12:25:48.080Z,13.22
2023-02-11T12:27:10.613Z,13.21
2023-02-11T12:28:18.110Z,13.19
2023-02-11T12:29:28.597Z,13.16
2023-02-11T12:30:35.786Z,13.15
2023-02-11T12:31:40.886Z,13.17
2023-02-11T12:33:17.988Z,13.17
2023-02-11T12:34:29.099Z,13.15
2023-02-11T12:35:49.241Z,13.16
2023-02-11T12:37:07.543Z,13.15
2023-02-11T12:38:16.065Z,13.14
2023-02-11T12:39:23.462Z,13.12
2023-02-11T12:40:43.573Z,13.01
2023-02-11T12:42:03.388Z,12.91
2023-02-11T12:43:17.036Z,12.92
2023-02-11T12:44:37.088Z,12.93
2023-02-11T12:45:59.227Z,12.96
2023-02-11T12:47:00.731Z,13.01
2023-02-11T12:48:05.679Z,12.99
2023-02-11T12:49:22.340Z,12.98
2023-02-11T12:50:26.635Z,12.99
2023-02-11T12:51:46.877Z,12.96
2023-02-11T12:53:07.006Z,12.98
2023-02-11T12:54:11.616Z,12.92
2023-02-11T12:55:25.984Z,12.92
2023-02-11T12:56:40.474Z,12.91
2023-02-11T12:57:41.984Z,12.94
2023-02-11T12:58:45.664Z,12.96
2023-02-11T12:59:56.349Z,12.96
2023-02-11T13:01:01.919Z,12.95
2023-02-11T13:02:04.363Z,12.99
2023-02-11T13:03:05.865Z,13.00
2023-02-11T13:04:13.461Z,13.00
2023-02-11T13:05:28.304Z,12.97
2023-02-11T13:06:32.828Z,12.94
2023-02-11T13:07:39.266Z,12.87
2023-02-11T13:08:45.915Z,12.91
2023-02-11T13:10:10.744Z,12.92
2023-02-11T13:11:15.017Z,12.86
2023-02-11T13:12:35.067Z,12.86
2023-02-11T13:13:45.225Z,12.84
2023-02-11T13:14:46.693Z,12.85
2023-02-11T13:16:07.856Z,12.83
2023-02-11T13:17:30.077Z,12.83
2023-02-11T13:18:51.567Z,12.74
2023-02-11T13:19:58.802Z,12.70
2023-02-11T13:21:08.383Z,12.64
2023-02-11T13:22:13.526Z,12.63
2023-02-11T13:23:20.754Z,12.59
2023-02-11T13:24:22.201Z,12.61
2023-02-11T13:25:23.638Z,12.60
2023-02-11T13:26:29.827Z,12.59
2023-02-11T13:27:40.374Z,12.57
2023-02-11T13:29:02.134Z,12.52
2023-02-11T13:30:24.354Z,12.53
2023-02-11T13:31:27.610Z,12.56
2023-02-11T13:32:41.148Z,12.51
2023-02-11T13:33:43.306Z,12.53
2023-02-11T13:34:44.801Z,12.52
2023-02-11T13:35:48.146Z,12.52
2023-02-11T13:36:58.529Z,12.38
2023-02-11T13:38:00.448Z,12.38
2023-02-11T13:39:03.035Z,12.41
2023-02-11T13:40:04.647Z,12.43
2023-02-11T13:41:21.204Z,12.43
2023-02-11T13:42:22.773Z,12.44
2023-02-11T13:43:25.513Z,12.45
2023-02-11T13:44:27.038Z,12.36
2023-02-11T13:45:36.368Z,12.31
2023-02-11T13:46:49.789Z,12.30
2023-02-11T13:47:55.490Z,12.25
2023-02-11T13:48:57.022Z,12.28
2023-02-11T13:49:58.550Z,12.29
2023-02-11T13:51:01.054Z,12.34
2023-02-11T13:52:03.754Z,12.34
2023-02-11T13:53:05.519Z,12.30
2023-02-11T13:54:07.471Z,12.31
2023-02-11T13:55:11.928Z,12.28
2023-02-11T13:56:23.508Z,12.20
2023-02-11T13:57:24.958Z,12.14
2023-02-11T13:58:29.230Z,12.13
2023-02-11T13:59:32.945Z,12.17
2023-02-11T14:00:34.510Z,12.18
2023-02-11T14:02:06.968Z,12.15
2023-02-11T14:03:30.584Z,12.18
2023-02-11T14:04:50.830Z,12.20
2023-02-11T14:06:36.688Z,12.17
2023-02-11T14:07:56.801Z,12.15